Hughsonville, New York
Current Conditions -  °F | °C
As of 3:53 AM on Thursday 23 Oct 2014 (Local Time) from KPOU Reporting Station
Overcast Overcast  
Wind Chill: 50°   Ceiling: 1300
Heat Index: 50°   Visibility: 10mi
Dew Point: 46°   Wind: 14mph
Humidity: 86%   Direction: 360°N
Pressure: 29.77"   Gusts: 22mph
Location:  41.58°N, 73.93°W
Report Text: KPOU 230753Z AUTO 36012G19KT 10SM OVC013 10/08 A2977 RMK AO2 RAE22 SLP077 P0001 T01000078 TSNO
Loading
Personal Weather Stations






























Interactive Weather Map
Tropical Storm Tracking
New forecast layout! Learn more

10-Day Weather Forecast

Advertisements
Track Severe Weather on mobile